Time;durP1;ratioP1;P1;durP2;ratioP2;P2;SDS_P1;SDS_P2;PMS_P1;PMS_P2;Temp;Humidity;BMP_temperature;BMP_pressure;BME280_temperature;BME280_humidity;BME280_pressure;Samples;Min_cycle;Max_cycle;Signal;HPM_P1;HPM_P2
2023/10/17 00:01:06;;;;;;;3.03;2.13;;;;;;;;;;6310328;28;20044;-64
2023/10/17 00:07:21;;;;;;;3.42;2.08;;;;;;;;;;6305562;28;20053;-64
2023/10/17 00:10:24;;;;;;;3.28;2.35;;;;;;;;;;6311385;28;20042;-62
2023/10/17 00:13:38;;;;;;;6.93;2.70;;;;;;;;;;6298786;28;20050;-62
2023/10/17 00:16:40;;;;;;;6.35;2.20;;;;;;;;;;6311520;28;20054;-62
2023/10/17 00:19:44;;;;;;;9.82;1.85;;;;;;;;;;6311338;28;20044;-62
2023/10/17 00:22:46;;;;;;;4.32;2.45;;;;;;;;;;6311268;28;20048;-62
2023/10/17 00:25:51;;;;;;;4.60;2.55;;;;;;;;;;6312039;28;20075;-62
2023/10/17 00:28:53;;;;;;;3.65;2.47;;;;;;;;;;6303355;28;20079;-63
2023/10/17 00:31:56;;;;;;;3.75;3.28;;;;;;;;;;6311028;28;20044;-63
2023/10/17 00:34:58;;;;;;;4.95;2.47;;;;;;;;;;6309875;28;20060;-64
2023/10/17 00:37:59;;;;;;;3.50;2.03;;;;;;;;;;6309550;28;20048;-63
2023/10/17 00:41:04;;;;;;;4.75;2.65;;;;;;;;;;6311551;28;20434;-63
2023/10/17 00:44:14;;;;;;;3.92;2.67;;;;;;;;;;6305793;28;20181;-63
2023/10/17 00:47:18;;;;;;;3.78;2.42;;;;;;;;;;6309099;28;20037;-63
2023/10/17 00:50:21;;;;;;;4.57;2.15;;;;;;;;;;6307768;28;20526;-63
2023/10/17 00:53:24;;;;;;;8.23;2.10;;;;;;;;;;6307657;28;20075;-63
2023/10/17 00:56:26;;;;;;;3.55;2.00;;;;;;;;;;6309656;28;20400;-63
2023/10/17 00:59:31;;;;;;;3.45;2.13;;;;;;;;;;6309743;28;20060;-63
2023/10/17 01:02:44;;;;;;;6.03;3.13;;;;;;;;;;6310162;28;20431;-63
2023/10/17 01:06:13;;;;;;;4.68;2.85;;;;;;;;;;6310647;28;20063;-63
2023/10/17 01:09:18;;;;;;;3.38;2.35;;;;;;;;;;6309037;28;20063;-63
2023/10/17 01:12:21;;;;;;;3.20;2.47;;;;;;;;;;6310888;28;20047;-63
2023/10/17 01:15:30;;;;;;;4.25;2.63;;;;;;;;;;6309841;28;20069;-63
2023/10/17 01:18:32;;;;;;;4.88;2.95;;;;;;;;;;6309714;28;20442;-63
2023/10/17 01:21:34;;;;;;;5.40;2.78;;;;;;;;;;6309535;28;20040;-63
2023/10/17 01:24:36;;;;;;;3.80;2.38;;;;;;;;;;6310163;28;20157;-63
2023/10/17 01:27:40;;;;;;;4.45;2.28;;;;;;;;;;6309800;28;20055;-63
2023/10/17 01:30:42;;;;;;;7.07;2.83;;;;;;;;;;6309420;28;20040;-63
2023/10/17 01:33:44;;;;;;;7.90;4.07;;;;;;;;;;6309367;28;20515;-63
2023/10/17 01:36:47;;;;;;;5.65;2.85;;;;;;;;;;6308601;28;20220;-63
2023/10/17 01:39:49;;;;;;;5.45;2.97;;;;;;;;;;6305174;28;20490;-63
2023/10/17 01:42:52;;;;;;;3.70;2.67;;;;;;;;;;6309911;28;20900;-63
2023/10/17 01:45:56;;;;;;;4.63;2.67;;;;;;;;;;6308055;28;20051;-63
2023/10/17 01:49:10;;;;;;;6.30;2.67;;;;;;;;;;6309713;28;20052;-63
2023/10/17 01:52:13;;;;;;;4.35;2.47;;;;;;;;;;6309560;28;20159;-64
2023/10/17 01:55:17;;;;;;;5.13;2.80;;;;;;;;;;6307040;28;20040;-64
2023/10/17 01:58:22;;;;;;;3.83;2.83;;;;;;;;;;6308024;28;20043;-63
2023/10/17 02:01:29;;;;;;;3.38;2.63;;;;;;;;;;6313212;28;20056;-63
2023/10/17 02:04:35;;;;;;;5.70;3.10;;;;;;;;;;6314323;28;20051;-63
2023/10/17 02:07:38;;;;;;;5.63;2.60;;;;;;;;;;6314058;28;20077;-63
2023/10/17 02:10:40;;;;;;;5.15;2.80;;;;;;;;;;6313430;28;20537;-63
2023/10/17 02:13:42;;;;;;;13.55;2.85;;;;;;;;;;6313286;28;20039;-63
2023/10/17 02:16:44;;;;;;;4.32;2.50;;;;;;;;;;6314779;28;20732;-63
2023/10/17 02:19:47;;;;;;;5.40;2.50;;;;;;;;;;6313235;28;20067;-63
2023/10/17 02:22:49;;;;;;;5.90;3.38;;;;;;;;;;6314646;28;20048;-62
2023/10/17 02:25:54;;;;;;;6.35;4.22;;;;;;;;;;6314144;28;20055;-63
2023/10/17 02:28:59;;;;;;;5.03;2.78;;;;;;;;;;6313863;28;20705;-62
2023/10/17 02:32:01;;;;;;;5.47;2.90;;;;;;;;;;6313534;28;20085;-63
2023/10/17 02:35:03;;;;;;;4.18;2.53;;;;;;;;;;6314959;28;20044;-62
2023/10/17 02:38:06;;;;;;;4.70;2.70;;;;;;;;;;6313818;28;20442;-63
2023/10/17 02:41:13;;;;;;;4.55;3.40;;;;;;;;;;6312717;28;20044;-64
2023/10/17 02:44:19;;;;;;;4.88;3.25;;;;;;;;;;6312777;28;20530;-64
2023/10/17 02:47:21;;;;;;;3.80;2.65;;;;;;;;;;6312083;28;20051;-64
2023/10/17 02:50:42;;;;;;;6.97;3.17;;;;;;;;;;6305577;28;20604;-63
2023/10/17 02:53:45;;;;;;;5.90;3.50;;;;;;;;;;6304094;28;20044;-63
2023/10/17 02:56:51;;;;;;;5.55;2.83;;;;;;;;;;6306398;28;20048;-64
2023/10/17 02:59:56;;;;;;;4.20;3.30;;;;;;;;;;6304387;28;20045;-63
2023/10/17 03:02:59;;;;;;;4.57;3.08;;;;;;;;;;6310172;28;20051;-63
2023/10/17 03:06:05;;;;;;;5.20;4.65;;;;;;;;;;6308509;28;20551;-64
2023/10/17 03:12:29;;;;;;;8.45;2.67;;;;;;;;;;6312482;28;20422;-62
2023/10/17 03:15:37;;;;;;;11.93;2.88;;;;;;;;;;6309807;28;20055;-62
2023/10/17 03:18:39;;;;;;;5.50;3.00;;;;;;;;;;6311422;28;20052;-63
2023/10/17 03:21:43;;;;;;;6.05;2.80;;;;;;;;;;6309680;28;20100;-63
2023/10/17 03:24:47;;;;;;;5.15;3.45;;;;;;;;;;6311240;28;20047;-62
2023/10/17 03:27:49;;;;;;;3.72;3.05;;;;;;;;;;6309580;28;20059;-63
2023/10/17 03:30:51;;;;;;;4.95;3.97;;;;;;;;;;6310883;28;20077;-63
2023/10/17 03:33:53;;;;;;;4.28;3.50;;;;;;;;;;6313504;28;20044;-63
2023/10/17 03:36:55;;;;;;;8.63;3.35;;;;;;;;;;6308799;28;20048;-63
2023/10/17 03:40:19;;;;;;;4.68;2.80;;;;;;;;;;6311117;28;20043;-62
2023/10/17 03:43:22;;;;;;;7.75;3.35;;;;;;;;;;6311644;28;20050;-63
2023/10/17 03:46:26;;;;;;;7.80;3.05;;;;;;;;;;6311912;28;20056;-62
2023/10/17 03:49:36;;;;;;;4.75;3.70;;;;;;;;;;6311827;28;20153;-62
2023/10/17 03:52:38;;;;;;;6.78;3.70;;;;;;;;;;6309015;28;20044;-63
2023/10/17 03:55:52;;;;;;;4.38;2.97;;;;;;;;;;6310108;28;20081;-63
2023/10/17 04:01:57;;;;;;;5.68;3.80;;;;;;;;;;6309347;28;20051;-63
2023/10/17 04:05:07;;;;;;;4.85;3.80;;;;;;;;;;6310864;28;20059;-63
2023/10/17 04:08:09;;;;;;;9.40;6.95;;;;;;;;;;6307368;28;20118;-63
2023/10/17 04:14:34;;;;;;;6.18;4.38;;;;;;;;;;6308501;28;20067;-63
2023/10/17 04:17:38;;;;;;;6.15;3.58;;;;;;;;;;6310914;28;20101;-63
2023/10/17 04:20:46;;;;;;;4.28;2.47;;;;;;;;;;6307818;28;20456;-71
2023/10/17 04:23:49;;;;;;;9.52;2.63;;;;;;;;;;6307071;28;20187;-68
2023/10/17 04:27:05;;;;;;;4.07;3.08;;;;;;;;;;6306401;28;20531;-63
2023/10/17 04:30:21;;;;;;;3.90;2.83;;;;;;;;;;6303724;28;20562;-62
2023/10/17 04:33:28;;;;;;;7.45;3.03;;;;;;;;;;6306752;28;20582;-67
2023/10/17 04:36:35;;;;;;;6.55;3.08;;;;;;;;;;6306330;28;20060;-62
2023/10/17 04:39:48;;;;;;;5.80;2.60;;;;;;;;;;6308719;28;20081;-62
2023/10/17 04:45:57;;;;;;;4.95;3.08;;;;;;;;;;6303434;28;20044;-62
2023/10/17 04:49:06;;;;;;;5.25;3.88;;;;;;;;;;6306037;28;20059;-63
2023/10/17 04:52:08;;;;;;;9.07;3.15;;;;;;;;;;6302697;28;20132;-71
2023/10/17 04:55:30;;;;;;;6.18;3.22;;;;;;;;;;6288431;28;20048;-67
2023/10/17 04:58:39;;;;;;;6.65;4.03;;;;;;;;;;6306949;28;20047;-68
2023/10/17 05:01:53;;;;;;;7.45;3.40;;;;;;;;;;6301336;28;20450;-68
2023/10/17 05:08:11;;;;;;;5.60;3.35;;;;;;;;;;6307799;28;20048;-68
2023/10/17 06:18:27;;;;;;;4.97;2.88;;;;;;;;;;6308064;28;20070;-63
2023/10/17 06:21:35;;;;;;;7.50;2.65;;;;;;;;;;6309091;28;20083;-62
2023/10/17 06:31:34;;;;;;;3.55;1.77;;;;;;;;;;6311986;28;20048;-63
2023/10/17 06:34:12;;;;;;;3.58;1.77;;;;;;;;;;6297200;28;20052;-63
2023/10/17 06:37:20;;;;;;;2.80;2.33;;;;;;;;;;6310005;28;20478;-64
2023/10/17 06:40:30;;;;;;;3.88;2.25;;;;;;;;;;6305871;28;20067;-63
2023/10/17 06:43:32;;;;;;;9.55;2.28;;;;;;;;;;6309059;28;20059;-63
2023/10/17 06:46:40;;;;;;;3.38;1.60;;;;;;;;;;6311345;28;20044;-62
2023/10/17 06:55:58;;;;;;;3.70;2.03;;;;;;;;;;6308230;28;20058;-62
2023/10/17 06:59:05;;;;;;;4.85;1.73;;;;;;;;;;6307824;28;20052;-63
2023/10/17 07:02:16;;;;;;;5.55;1.80;;;;;;;;;;6312235;28;20048;-62
2023/10/17 07:05:21;;;;;;;6.10;1.67;;;;;;;;;;6308536;28;20507;-62
2023/10/17 07:08:27;;;;;;;6.85;1.65;;;;;;;;;;6309892;28;20047;-62
2023/10/17 07:11:29;;;;;;;3.30;1.40;;;;;;;;;;6309481;28;20048;-63
2023/10/17 07:14:32;;;;;;;4.32;2.00;;;;;;;;;;6305489;28;20334;-63
2023/10/17 07:17:43;;;;;;;4.75;1.83;;;;;;;;;;6305866;28;20044;-63
2023/10/17 07:24:07;;;;;;;3.88;1.60;;;;;;;;;;6311660;28;20048;-63
2023/10/17 07:27:33;;;;;;;8.80;2.85;;;;;;;;;;6311399;28;20125;-63
2023/10/17 07:30:35;;;;;;;5.40;2.38;;;;;;;;;;6311032;28;20048;-63
2023/10/17 07:33:41;;;;;;;3.42;1.98;;;;;;;;;;6312004;28;20119;-63
2023/10/17 07:36:44;;;;;;;4.47;1.58;;;;;;;;;;6310537;28;20092;-62
2023/10/17 07:40:02;;;;;;;4.15;2.15;;;;;;;;;;6311716;28;20081;-62
2023/10/17 07:43:07;;;;;;;4.47;1.70;;;;;;;;;;6309599;28;20044;-63
2023/10/17 07:46:18;;;;;;;6.60;1.45;;;;;;;;;;6311842;28;20169;-62
2023/10/17 07:49:26;;;;;;;;;;;;;;;;;;6310332;28;20660;-63
2023/10/17 07:52:31;;;;;;;3.25;1.70;;;;;;;;;;6308138;28;20072;-63
2023/10/17 07:55:36;;;;;;;4.88;1.92;;;;;;;;;;6310290;28;20120;-63
2023/10/17 07:58:45;;;;;;;;;;;;;;;;;;6311860;28;20048;-63
2023/10/17 08:01:50;;;;;;;5.82;1.95;;;;;;;;;;6310240;28;20318;-63
2023/10/17 08:04:53;;;;;;;3.92;1.85;;;;;;;;;;6309344;28;20490;-63
2023/10/17 08:08:04;;;;;;;3.72;1.75;;;;;;;;;;6311146;28;20055;-63
2023/10/17 08:11:08;;;;;;;7.78;1.90;;;;;;;;;;6312168;28;20055;-63
2023/10/17 08:14:11;;;;;;;3.25;1.15;;;;;;;;;;6312349;28;20040;-64
2023/10/17 08:17:14;;;;;;;6.80;1.55;;;;;;;;;;6312355;28;20086;-63
2023/10/17 08:23:19;;;;;;;5.13;1.48;;;;;;;;;;6310989;28;20055;-63
2023/10/17 08:26:28;;;;;;;6.22;1.50;;;;;;;;;;6311582;28;20155;-62
2023/10/17 08:29:34;;;;;;;5.22;2.83;;;;;;;;;;6311257;28;20635;-63
2023/10/17 08:32:39;;;;;;;5.05;2.22;;;;;;;;;;6310843;28;20868;-64
2023/10/17 08:35:51;;;;;;;4.90;1.40;;;;;;;;;;6311142;28;20533;-64
2023/10/17 08:38:54;;;;;;;6.03;1.52;;;;;;;;;;6310963;28;20165;-63
2023/10/17 08:41:57;;;;;;;4.10;1.13;;;;;;;;;;6311160;28;20044;-64
2023/10/17 08:45:04;;;;;;;2.05;0.82;;;;;;;;;;6309106;28;20035;-64
2023/10/17 08:48:08;;;;;;;3.10;2.35;;;;;;;;;;6310553;28;20795;-63
2023/10/17 08:51:18;;;;;;;7.22;1.98;;;;;;;;;;6310044;28;20063;-64
2023/10/17 08:54:30;;;;;;;4.28;1.60;;;;;;;;;;6310929;28;20535;-64
2023/10/17 08:57:33;;;;;;;3.72;1.38;;;;;;;;;;6310600;28;20051;-63
2023/10/17 09:03:47;;;;;;;2.17;1.00;;;;;;;;;;6308991;28;20185;-63
2023/10/17 09:06:59;;;;;;;2.70;1.13;;;;;;;;;;6309291;28;20059;-64
2023/10/17 09:10:16;;;;;;;2.67;2.03;;;;;;;;;;6309791;28;20059;-64
2023/10/17 09:16:23;;;;;;;15.07;9.15;;;;;;;;;;6310314;28;20545;-63
2023/10/17 09:19:25;;;;;;;17.83;9.15;;;;;;;;;;6307709;28;20044;-63
2023/10/17 09:22:30;;;;;;;21.38;11.40;;;;;;;;;;6311257;28;20047;-64
2023/10/17 09:25:32;;;;;;;6.38;3.80;;;;;;;;;;6310712;28;20148;-64
2023/10/17 09:28:36;;;;;;;9.02;5.72;;;;;;;;;;6310604;28;20530;-64
2023/10/17 09:31:43;;;;;;;9.18;3.90;;;;;;;;;;6310419;28;20047;-63
2023/10/17 09:34:47;;;;;;;6.32;3.05;;;;;;;;;;6311430;28;20070;-63
2023/10/17 09:37:52;;;;;;;5.25;4.13;;;;;;;;;;6340880;28;20040;-64
2023/10/17 09:41:03;;;;;;;4.65;3.15;;;;;;;;;;6310930;28;20052;-64
2023/10/17 09:44:19;;;;;;;3.45;1.63;;;;;;;;;;6310535;28;20078;-63
2023/10/17 09:47:22;;;;;;;3.22;1.88;;;;;;;;;;6306234;28;20133;-63
2023/10/17 09:50:25;;;;;;;3.05;1.75;;;;;;;;;;6308841;28;20047;-63
2023/10/17 09:53:31;;;;;;;3.88;3.17;;;;;;;;;;6311031;28;20175;-64
2023/10/17 09:56:38;;;;;;;5.68;2.03;;;;;;;;;;6310309;28;20055;-64
2023/10/17 09:59:46;;;;;;;6.85;2.17;;;;;;;;;;6309048;28;20139;-64
2023/10/17 10:02:49;;;;;;;3.03;1.70;;;;;;;;;;6308715;28;20044;-64
2023/10/17 10:06:30;;;;;;;9.40;5.15;;;;;;;;;;6307628;28;20551;-64
2023/10/17 10:09:36;;;;;;;5.25;4.18;;;;;;;;;;6309971;28;20059;-63
2023/10/17 10:12:57;;;;;;;6.13;1.83;;;;;;;;;;6310241;28;20115;-63
2023/10/17 10:16:10;;;;;;;7.38;2.28;;;;;;;;;;6309925;28;20051;-64
2023/10/17 10:19:14;;;;;;;4.72;1.92;;;;;;;;;;6309620;28;20319;-63
2023/10/17 10:22:17;;;;;;;4.88;2.25;;;;;;;;;;6314845;28;20071;-64
2023/10/17 10:25:20;;;;;;;8.65;2.67;;;;;;;;;;6312686;28;20750;-63
2023/10/17 10:28:29;;;;;;;7.60;1.90;;;;;;;;;;6311847;28;20059;-64
2023/10/17 10:31:34;;;;;;;3.83;1.80;;;;;;;;;;6309330;28;20196;-64
2023/10/17 10:34:37;;;;;;;3.88;2.70;;;;;;;;;;6314458;28;20044;-64
2023/10/17 10:37:54;;;;;;;3.13;1.42;;;;;;;;;;6311657;28;20086;-64
2023/10/17 10:40:56;;;;;;;;;;;;;;;;;;6313070;28;20040;-64
2023/10/17 10:43:59;;;;;;;2.85;1.23;;;;;;;;;;6313704;28;20410;-64
2023/10/17 10:47:02;;;;;;;4.38;1.70;;;;;;;;;;6312995;28;20044;-64
2023/10/17 10:50:05;;;;;;;6.28;1.83;;;;;;;;;;6311502;28;20747;-61
2023/10/17 10:53:29;;;;;;;4.15;1.88;;;;;;;;;;6306376;28;20051;-61
2023/10/17 10:56:32;;;;;;;5.80;1.95;;;;;;;;;;6311131;28;20044;-62
2023/10/17 10:59:33;;;;;;;3.85;1.77;;;;;;;;;;6312542;28;20048;-62
2023/10/17 11:02:37;;;;;;;3.53;1.88;;;;;;;;;;6309593;28;20042;-61
2023/10/17 11:05:55;;;;;;;4.72;1.30;;;;;;;;;;6312088;28;20040;-61
2023/10/17 11:08:57;;;;;;;7.10;1.60;;;;;;;;;;6303527;28;20434;-62
2023/10/17 11:11:59;;;;;;;3.85;1.83;;;;;;;;;;6309429;28;20048;-62
2023/10/17 11:15:14;;;;;;;3.03;1.38;;;;;;;;;;6304604;28;20118;-62
2023/10/17 11:18:19;;;;;;;2.75;1.25;;;;;;;;;;6309649;28;20044;-62
2023/10/17 11:21:23;;;;;;;3.08;1.52;;;;;;;;;;6309873;28;20768;-62
2023/10/17 11:24:26;;;;;;;3.85;1.35;;;;;;;;;;6311325;28;20044;-61
2023/10/17 11:27:32;;;;;;;5.65;1.30;;;;;;;;;;6311306;28;20542;-61
2023/10/17 11:30:40;;;;;;;4.07;1.70;;;;;;;;;;6310946;28;20040;-61
2023/10/17 11:33:47;;;;;;;4.90;2.15;;;;;;;;;;6311602;28;20495;-62
2023/10/17 11:36:51;;;;;;;3.67;1.67;;;;;;;;;;6311367;28;20169;-62
2023/10/17 11:40:04;;;;;;;5.43;1.73;;;;;;;;;;6309329;28;20053;-61
2023/10/17 11:43:17;;;;;;;2.47;1.30;;;;;;;;;;6310299;28;20868;-62
2023/10/17 11:46:29;;;;;;;3.67;2.45;;;;;;;;;;6308890;28;20201;-62
2023/10/17 11:49:38;;;;;;;5.13;2.70;;;;;;;;;;6310996;28;20522;-63
2023/10/17 11:52:40;;;;;;;6.30;2.60;;;;;;;;;;6309142;28;20159;-62
2023/10/17 11:55:45;;;;;;;4.53;1.50;;;;;;;;;;6306600;28;20201;-62
2023/10/17 11:58:51;;;;;;;4.90;1.77;;;;;;;;;;6310139;28;20048;-61
2023/10/17 12:01:53;;;;;;;3.38;1.25;;;;;;;;;;6307111;28;20044;-62
2023/10/17 12:04:55;;;;;;;2.92;1.63;;;;;;;;;;6308141;28;20648;-62
2023/10/17 12:07:59;;;;;;;4.20;1.90;;;;;;;;;;6309168;28;20059;-62
2023/10/17 12:11:01;;;;;;;4.85;1.45;;;;;;;;;;6307465;28;20047;-69
2023/10/17 12:14:03;;;;;;;8.82;2.13;;;;;;;;;;6308580;28;20044;-70
2023/10/17 12:17:08;;;;;;;8.45;3.55;;;;;;;;;;6311518;28;20040;-70
2023/10/17 12:20:13;;;;;;;4.72;2.22;;;;;;;;;;6305140;28;20078;-70
2023/10/17 12:23:18;;;;;;;4.03;1.98;;;;;;;;;;6310339;28;20514;-70
2023/10/17 12:26:26;;;;;;;3.53;3.22;;;;;;;;;;6310524;28;20074;-70
2023/10/17 12:29:29;;;;;;;8.75;3.45;;;;;;;;;;6309501;28;20685;-70
2023/10/17 12:32:31;;;;;;;5.50;2.75;;;;;;;;;;6307452;28;20052;-71
2023/10/17 12:35:33;;;;;;;4.97;1.52;;;;;;;;;;6309773;28;20751;-70
2023/10/17 12:38:35;;;;;;;7.57;1.85;;;;;;;;;;6309732;28;20044;-71
2023/10/17 12:41:37;;;;;;;4.07;1.55;;;;;;;;;;6309598;28;20036;-70
2023/10/17 12:44:40;;;;;;;5.97;2.00;;;;;;;;;;6304971;28;20172;-70
2023/10/17 12:47:47;;;;;;;7.43;2.40;;;;;;;;;;6324933;28;20604;-70
2023/10/17 12:50:49;;;;;;;7.95;2.45;;;;;;;;;;6308956;28;20044;-71
2023/10/17 12:53:51;;;;;;;4.40;2.15;;;;;;;;;;6306170;28;20059;-70
2023/10/17 12:56:53;;;;;;;5.80;2.72;;;;;;;;;;6309412;28;20450;-70
2023/10/17 12:59:59;;;;;;;10.15;2.00;;;;;;;;;;6307607;28;20039;-70
2023/10/17 13:03:01;;;;;;;10.35;2.92;;;;;;;;;;6308244;28;20454;-70
2023/10/17 13:06:04;;;;;;;4.20;2.35;;;;;;;;;;6307134;28;20477;-70
2023/10/17 13:09:06;;;;;;;9.15;4.18;;;;;;;;;;6305761;28;20036;-70
2023/10/17 13:12:08;;;;;;;6.47;2.15;;;;;;;;;;6308054;28;20066;-70
2023/10/17 13:15:14;;;;;;;10.38;3.40;;;;;;;;;;6292578;28;20201;-70
2023/10/17 13:18:19;;;;;;;8.68;2.28;;;;;;;;;;6309391;28;20040;-70
2023/10/17 13:21:22;;;;;;;5.47;1.90;;;;;;;;;;6304846;28;20055;-71
2023/10/17 13:24:26;;;;;;;6.95;2.13;;;;;;;;;;6309276;28;21026;-71
2023/10/17 13:27:28;;;;;;;;;;;;;;;;;;6310620;28;20048;-70
2023/10/17 13:30:34;;;;;;;4.25;2.53;;;;;;;;;;6308110;28;20076;-70
2023/10/17 13:33:36;;;;;;;5.72;1.95;;;;;;;;;;6308004;28;20048;-71
2023/10/17 13:36:38;;;;;;;4.18;2.35;;;;;;;;;;6305401;28;20043;-69
2023/10/17 13:39:41;;;;;;;7.05;2.78;;;;;;;;;;6308401;28;20052;-70
2023/10/17 13:42:43;;;;;;;6.07;2.28;;;;;;;;;;6309073;28;20109;-70
2023/10/17 13:45:45;;;;;;;4.40;2.88;;;;;;;;;;6307333;28;20715;-70
2023/10/17 13:48:50;;;;;;;6.95;2.08;;;;;;;;;;6308072;28;20052;-70
2023/10/17 13:51:54;;;;;;;5.45;2.70;;;;;;;;;;6307548;28;20048;-69
2023/10/17 13:54:58;;;;;;;7.75;3.10;;;;;;;;;;6310048;28;20047;-71
2023/10/17 13:58:03;;;;;;;6.20;1.92;;;;;;;;;;6312852;28;20044;-69
2023/10/17 14:01:27;;;;;;;;;;;;;;;;;;6315060;28;20052;-70
2023/10/17 14:04:27;;;;;;;6.20;3.42;;;;;;;;;;6309619;28;20323;-70
2023/10/17 14:07:30;;;;;;;6.40;2.30;;;;;;;;;;6296483;28;20123;-69
2023/10/17 14:10:32;;;;;;;7.10;2.70;;;;;;;;;;6313614;28;20094;-63
2023/10/17 14:13:38;;;;;;;3.78;2.50;;;;;;;;;;6313396;28;20133;-63
2023/10/17 14:16:40;;;;;;;4.68;2.17;;;;;;;;;;6302115;28;20047;-63
2023/10/17 14:19:45;;;;;;;5.97;3.38;;;;;;;;;;6302879;28;20807;-63
2023/10/17 14:23:08;;;;;;;4.22;2.47;;;;;;;;;;6307177;28;20101;-63
2023/10/17 14:26:10;;;;;;;5.28;2.30;;;;;;;;;;6306803;28;20050;-63
2023/10/17 14:29:12;;;;;;;4.50;1.98;;;;;;;;;;6308812;28;20055;-63
2023/10/17 14:32:20;;;;;;;5.28;2.20;;;;;;;;;;6309496;28;20044;-63
2023/10/17 14:35:22;;;;;;;10.35;3.28;;;;;;;;;;6309665;28;20548;-62
2023/10/17 14:38:25;;;;;;;7.47;3.00;;;;;;;;;;6309307;28;20048;-63
2023/10/17 14:41:28;;;;;;;6.38;3.45;;;;;;;;;;6307234;28;20438;-63
2023/10/17 14:44:30;;;;;;;6.10;3.63;;;;;;;;;;6302481;28;20431;-63
2023/10/17 14:47:32;;;;;;;6.63;3.75;;;;;;;;;;6305302;28;20547;-63
2023/10/17 14:50:36;;;;;;;4.90;2.75;;;;;;;;;;6307522;28;20130;-63
2023/10/17 14:53:42;;;;;;;14.73;7.63;;;;;;;;;;6310168;28;20047;-62
2023/10/17 14:56:58;;;;;;;24.40;11.70;;;;;;;;;;6305840;28;20051;-64
2023/10/17 15:00:00;;;;;;;21.80;10.45;;;;;;;;;;6307455;28;20044;-62
2023/10/17 15:03:03;;;;;;;20.65;8.98;;;;;;;;;;6307615;28;20044;-63
2023/10/17 15:06:09;;;;;;;12.00;4.65;;;;;;;;;;6302859;28;20094;-63
2023/10/17 15:09:14;;;;;;;10.43;5.72;;;;;;;;;;6302431;28;20086;-63
2023/10/17 15:12:16;;;;;;;8.77;4.80;;;;;;;;;;6301023;28;20148;-63
2023/10/17 15:15:19;;;;;;;11.07;5.25;;;;;;;;;;6310522;28;20051;-63
2023/10/17 15:18:21;;;;;;;25.15;12.45;;;;;;;;;;6308886;28;20047;-63
2023/10/17 15:21:23;;;;;;;29.17;15.90;;;;;;;;;;6310735;28;20040;-63
2023/10/17 15:24:26;;;;;;;19.33;10.80;;;;;;;;;;6312094;28;20048;-62
2023/10/17 15:27:31;;;;;;;34.13;19.15;;;;;;;;;;6311973;28;20088;-63
2023/10/17 15:30:34;;;;;;;11.07;8.15;;;;;;;;;;6306918;28;20052;-62
2023/10/17 15:33:39;;;;;;;5.93;4.47;;;;;;;;;;6309650;28;20170;-62
2023/10/17 15:36:41;;;;;;;8.18;5.07;;;;;;;;;;6304722;28;20044;-63
2023/10/17 15:39:44;;;;;;;11.55;7.78;;;;;;;;;;6302715;28;20040;-62
2023/10/17 15:42:49;;;;;;;7.97;5.05;;;;;;;;;;6304568;28;20063;-62
2023/10/17 15:45:56;;;;;;;6.18;3.25;;;;;;;;;;6309994;28;20754;-61
2023/10/17 15:48:58;;;;;;;7.82;3.80;;;;;;;;;;6311799;28;20048;-62
2023/10/17 15:52:00;;;;;;;6.32;3.03;;;;;;;;;;6300149;28;20063;-62
2023/10/17 15:55:02;;;;;;;6.55;3.35;;;;;;;;;;6294695;28;20036;-63
2023/10/17 15:58:05;;;;;;;18.75;10.32;;;;;;;;;;6309144;28;20044;-62
2023/10/17 16:01:07;;;;;;;12.80;6.35;;;;;;;;;;6307054;28;20072;-63
2023/10/17 16:04:11;;;;;;;11.90;6.97;;;;;;;;;;6311601;28;20048;-62
2023/10/17 16:07:14;;;;;;;7.90;3.72;;;;;;;;;;6301491;28;20048;-63
2023/10/17 16:10:16;;;;;;;6.38;4.65;;;;;;;;;;6305903;28;20561;-62
2023/10/17 16:13:18;;;;;;;9.00;4.07;;;;;;;;;;6299602;28;20154;-62
2023/10/17 16:16:21;;;;;;;6.57;3.60;;;;;;;;;;6303370;28;20039;-63
2023/10/17 16:19:24;;;;;;;6.95;3.58;;;;;;;;;;6298578;28;20709;-63
2023/10/17 16:22:26;;;;;;;7.45;4.53;;;;;;;;;;6301833;28;20052;-63
2023/10/17 16:25:29;;;;;;;7.22;4.53;;;;;;;;;;6302095;28;20154;-61
2023/10/17 16:28:32;;;;;;;9.15;3.75;;;;;;;;;;6306496;28;20072;-62
2023/10/17 16:31:34;;;;;;;8.43;3.45;;;;;;;;;;6306064;28;20052;-62
2023/10/17 16:34:36;;;;;;;12.13;3.30;;;;;;;;;;6308578;28;20048;-62
2023/10/17 16:37:38;;;;;;;10.70;4.13;;;;;;;;;;6307844;28;20613;-63
2023/10/17 16:40:42;;;;;;;7.70;3.15;;;;;;;;;;6307789;28;20055;-62
2023/10/17 16:43:44;;;;;;;6.82;3.50;;;;;;;;;;6309669;28;20055;-62
2023/10/17 16:46:46;;;;;;;13.55;4.13;;;;;;;;;;6307541;28;20052;-63
2023/10/17 16:49:48;;;;;;;13.48;5.22;;;;;;;;;;6303478;28;20052;-63
2023/10/17 16:52:50;;;;;;;7.55;4.10;;;;;;;;;;6308792;28;20044;-62
2023/10/17 16:55:52;;;;;;;13.25;4.28;;;;;;;;;;6308506;28;20043;-63
2023/10/17 16:58:56;;;;;;;7.57;3.65;;;;;;;;;;6306208;28;20123;-63
2023/10/17 17:01:59;;;;;;;10.80;3.70;;;;;;;;;;6301031;28;20082;-63
2023/10/17 17:05:03;;;;;;;9.18;3.28;;;;;;;;;;6307314;28;20040;-63
2023/10/17 17:08:06;;;;;;;11.32;2.80;;;;;;;;;;6306545;28;20091;-63
2023/10/17 17:11:09;;;;;;;9.05;3.25;;;;;;;;;;6308339;28;20082;-63
2023/10/17 17:14:11;;;;;;;4.90;2.17;;;;;;;;;;6303437;28;20058;-62
2023/10/17 17:17:13;;;;;;;6.05;2.38;;;;;;;;;;6299396;28;20044;-62
2023/10/17 17:20:15;;;;;;;7.78;3.00;;;;;;;;;;6304054;28;20059;-63
2023/10/17 17:23:18;;;;;;;4.63;2.50;;;;;;;;;;6307811;28;20055;-62
2023/10/17 17:26:20;;;;;;;6.25;3.35;;;;;;;;;;6308071;28;20087;-63
2023/10/17 17:29:27;;;;;;;7.10;3.10;;;;;;;;;;6307335;28;20036;-65
2023/10/17 17:32:30;;;;;;;5.53;4.00;;;;;;;;;;6306574;28;20048;-63
2023/10/17 17:35:32;;;;;;;6.35;5.00;;;;;;;;;;6307068;28;20451;-64
2023/10/17 17:38:35;;;;;;;5.35;4.18;;;;;;;;;;6311858;28;20052;-70
2023/10/17 17:41:37;;;;;;;12.82;3.63;;;;;;;;;;6308771;28;20050;-63
2023/10/17 17:44:39;;;;;;;9.93;5.18;;;;;;;;;;6312711;28;20044;-64
2023/10/17 17:47:42;;;;;;;7.68;4.32;;;;;;;;;;6310349;28;20040;-63
2023/10/17 17:50:44;;;;;;;9.15;3.38;;;;;;;;;;6308409;28;20046;-64
2023/10/17 17:53:47;;;;;;;7.95;4.85;;;;;;;;;;6310153;28;20064;-64
2023/10/17 17:56:49;;;;;;;5.95;4.35;;;;;;;;;;6310456;28;20052;-74
2023/10/17 17:59:51;;;;;;;6.70;3.80;;;;;;;;;;6306203;28;20055;-67
2023/10/17 18:02:53;;;;;;;5.07;3.13;;;;;;;;;;6310357;28;20054;-68
2023/10/17 18:05:55;;;;;;;5.25;3.45;;;;;;;;;;6310434;28;21300;-68
2023/10/17 18:08:58;;;;;;;10.35;3.95;;;;;;;;;;6312729;28;20040;-68
2023/10/17 18:12:00;;;;;;;6.22;2.97;;;;;;;;;;6311206;28;20108;-67
2023/10/17 18:15:02;;;;;;;4.63;3.22;;;;;;;;;;6307132;28;20101;-68
2023/10/17 18:18:05;;;;;;;7.63;4.20;;;;;;;;;;6308479;28;20446;-68
2023/10/17 18:21:08;;;;;;;6.13;3.25;;;;;;;;;;6312473;28;20059;-68
2023/10/17 18:24:12;;;;;;;8.73;4.43;;;;;;;;;;6311218;28;20044;-68
2023/10/17 18:27:14;;;;;;;5.85;4.55;;;;;;;;;;6310433;28;20130;-68
2023/10/17 18:30:16;;;;;;;7.57;4.10;;;;;;;;;;6312199;28;20044;-67
2023/10/17 18:33:18;;;;;;;9.38;4.90;;;;;;;;;;6310465;28;20048;-67
2023/10/17 18:36:20;;;;;;;7.20;3.45;;;;;;;;;;6313594;28;20048;-67
2023/10/17 18:39:23;;;;;;;7.15;3.88;;;;;;;;;;6313274;28;20052;-67
2023/10/17 18:42:25;;;;;;;7.45;3.35;;;;;;;;;;6309019;28;20097;-67
2023/10/17 18:45:27;;;;;;;7.95;3.85;;;;;;;;;;6310508;28;20044;-67
2023/10/17 18:48:30;;;;;;;8.25;5.70;;;;;;;;;;6313154;28;20044;-67
2023/10/17 18:51:33;;;;;;;4.57;3.08;;;;;;;;;;6312057;28;20051;-67
2023/10/17 18:54:39;;;;;;;9.60;4.32;;;;;;;;;;6312858;28;20547;-67
2023/10/17 18:57:41;;;;;;;6.22;4.15;;;;;;;;;;6309114;28;20059;-67
2023/10/17 19:00:44;;;;;;;9.43;5.18;;;;;;;;;;6310061;28;20055;-68
2023/10/17 19:03:51;;;;;;;9.70;5.03;;;;;;;;;;6312526;28;20547;-68
2023/10/17 19:06:57;;;;;;;8.95;5.93;;;;;;;;;;6312287;28;20044;-67
2023/10/17 19:10:00;;;;;;;11.55;7.05;;;;;;;;;;6312469;28;20047;-66
2023/10/17 19:13:03;;;;;;;12.95;8.25;;;;;;;;;;6303968;28;20068;-64
2023/10/17 19:16:08;;;;;;;16.00;8.60;;;;;;;;;;6309992;28;20048;-63
2023/10/17 19:19:10;;;;;;;;;;;;;;;;;;6309207;28;20051;-63
2023/10/17 19:22:12;;;;;;;15.75;8.23;;;;;;;;;;6306736;28;19923;-63
2023/10/17 19:25:15;;;;;;;14.00;9.52;;;;;;;;;;6306866;28;20777;-63
2023/10/17 19:28:17;;;;;;;12.38;8.32;;;;;;;;;;6308681;28;20056;-63
2023/10/17 19:31:21;;;;;;;14.70;7.53;;;;;;;;;;6302431;28;20044;-65
2023/10/17 19:34:23;;;;;;;14.70;7.43;;;;;;;;;;6310469;28;20055;-67
2023/10/17 19:37:26;;;;;;;12.10;7.00;;;;;;;;;;6303283;28;20040;-65
2023/10/17 19:40:28;;;;;;;11.85;7.53;;;;;;;;;;6308686;28;20036;-65
2023/10/17 19:43:30;;;;;;;13.32;7.70;;;;;;;;;;6306122;28;20067;-65
2023/10/17 19:46:33;;;;;;;15.02;8.25;;;;;;;;;;6308430;28;20040;-65
2023/10/17 19:49:35;;;;;;;18.38;10.98;;;;;;;;;;6305677;28;20492;-65
2023/10/17 19:52:38;;;;;;;13.18;8.25;;;;;;;;;;6309102;28;20081;-65
2023/10/17 19:55:40;;;;;;;13.80;9.00;;;;;;;;;;6304243;28;20116;-64
2023/10/17 19:58:42;;;;;;;12.38;8.57;;;;;;;;;;6306536;28;20059;-64
2023/10/17 20:01:44;;;;;;;15.60;8.73;;;;;;;;;;6304629;28;20655;-64
2023/10/17 20:04:47;;;;;;;15.60;10.20;;;;;;;;;;6307938;28;20063;-65
2023/10/17 20:07:49;;;;;;;16.55;10.63;;;;;;;;;;6309052;28;20142;-64
2023/10/17 20:11:05;;;;;;;17.05;8.65;;;;;;;;;;6306755;28;20048;-65
2023/10/17 20:14:07;;;;;;;14.75;8.70;;;;;;;;;;6308452;28;20063;-64
2023/10/17 20:17:11;;;;;;;17.38;10.30;;;;;;;;;;6300723;28;20047;-64
2023/10/17 20:20:14;;;;;;;14.90;9.25;;;;;;;;;;6307246;28;20438;-65